sensor_id;sensor_type;location;lat;lon;timestamp;pressure;altitude;pressure_sealevel;temperature;humidity
39491;BME280;25175;50.140;18.990;2023-01-27T00:02:56;98656.72;;;1.54;59.71
39491;BME280;25175;50.140;18.990;2023-01-27T00:06:01;98652.38;;;1.54;59.92
39491;BME280;25175;50.140;18.990;2023-01-27T00:09:06;98646.22;;;1.55;59.87
39491;BME280;25175;50.140;18.990;2023-01-27T00:12:19;98613.75;;;1.26;59.83
39491;BME280;25175;50.140;18.990;2023-01-27T00:15:37;98644.47;;;1.56;59.84
39491;BME280;25175;50.140;18.990;2023-01-27T00:18:45;98653.03;;;1.56;59.84
39491;BME280;25175;50.140;18.990;2023-01-27T00:21:49;98611.16;;;1.26;59.90
39491;BME280;25175;50.140;18.990;2023-01-27T00:25:07;98627.34;;;1.28;60.32
39491;BME280;25175;50.140;18.990;2023-01-27T00:28:12;98658.84;;;1.41;60.47
39491;BME280;25175;50.140;18.990;2023-01-27T00:31:23;98643.38;;;1.31;60.55
39491;BME280;25175;50.140;18.990;2023-01-27T00:34:48;98648.97;;;1.27;60.54
39491;BME280;25175;50.140;18.990;2023-01-27T00:37:53;98665.16;;;1.29;61.08
39491;BME280;25175;50.140;18.990;2023-01-27T00:40:57;98670.56;;;1.35;60.67
39491;BME280;25175;50.140;18.990;2023-01-27T00:44:16;98665.78;;;1.40;60.68
39491;BME280;25175;50.140;18.990;2023-01-27T00:47:20;98659.38;;;1.44;60.65
39491;BME280;25175;50.140;18.990;2023-01-27T00:50:29;98646.19;;;1.38;60.50
39491;BME280;25175;50.140;18.990;2023-01-27T00:53:33;98668.34;;;1.50;60.61
39491;BME280;25175;50.140;18.990;2023-01-27T00:56:38;98659.63;;;1.51;60.41
39491;BME280;25175;50.140;18.990;2023-01-27T00:59:44;98651.72;;;1.52;60.41
39491;BME280;25175;50.140;18.990;2023-01-27T01:02:49;98651.16;;;1.49;60.53
39491;BME280;25175;50.140;18.990;2023-01-27T01:05:58;98597.13;;;1.11;60.49
39491;BME280;25175;50.140;18.990;2023-01-27T01:09:04;98645.47;;;1.45;60.44
39491;BME280;25175;50.140;18.990;2023-01-27T01:12:08;98654.59;;;1.49;60.22
39491;BME280;25175;50.140;18.990;2023-01-27T01:15:14;98640.81;;;1.49;59.99
39491;BME280;25175;50.140;18.990;2023-01-27T01:18:18;98653.63;;;1.50;60.04
39491;BME280;25175;50.140;18.990;2023-01-27T01:21:26;98651.84;;;1.51;60.21
39491;BME280;25175;50.140;18.990;2023-01-27T01:24:32;98651.72;;;1.52;59.90
39491;BME280;25175;50.140;18.990;2023-01-27T01:27:37;98627.84;;;1.41;59.98
39491;BME280;25175;50.140;18.990;2023-01-27T01:30:41;98649.94;;;1.53;59.91
39491;BME280;25175;50.140;18.990;2023-01-27T01:33:47;98647.34;;;1.53;59.79
39491;BME280;25175;50.140;18.990;2023-01-27T01:36:54;98649.41;;;1.49;60.10
39491;BME280;25175;50.140;18.990;2023-01-27T01:39:59;98653.09;;;1.47;60.21
39491;BME280;25175;50.140;18.990;2023-01-27T01:43:11;98609.16;;;1.20;60.42
39491;BME280;25175;50.140;18.990;2023-01-27T01:46:21;98645.25;;;1.39;60.52
39491;BME280;25175;50.140;18.990;2023-01-27T01:49:29;98641.97;;;1.37;60.57
39491;BME280;25175;50.140;18.990;2023-01-27T01:52:41;98634.38;;;1.35;60.55
39491;BME280;25175;50.140;18.990;2023-01-27T01:55:47;98643.06;;;1.34;60.70
39491;BME280;25175;50.140;18.990;2023-01-27T01:58:55;98643.91;;;1.35;60.87
39491;BME280;25175;50.140;18.990;2023-01-27T02:02:08;98636.03;;;1.27;60.42
39491;BME280;25175;50.140;18.990;2023-01-27T02:05:20;98651.13;;;1.31;60.51
39491;BME280;25175;50.140;18.990;2023-01-27T02:08:37;98640.94;;;1.30;60.52
39491;BME280;25175;50.140;18.990;2023-01-27T02:11:43;98635.75;;;1.30;60.53
39491;BME280;25175;50.140;18.990;2023-01-27T02:14:48;98633.19;;;1.30;60.16
39491;BME280;25175;50.140;18.990;2023-01-27T02:17:53;98626.16;;;1.22;60.40
39491;BME280;25175;50.140;18.990;2023-01-27T02:20:57;98636.03;;;1.27;60.64
39491;BME280;25175;50.140;18.990;2023-01-27T02:24:05;98643.78;;;1.27;60.65
39491;BME280;25175;50.140;18.990;2023-01-27T02:27:16;98646.69;;;1.24;60.63
39491;BME280;25175;50.140;18.990;2023-01-27T02:30:21;98642.38;;;1.15;60.43
39491;BME280;25175;50.140;18.990;2023-01-27T02:33:26;98642.31;;;1.07;60.98
39491;BME280;25175;50.140;18.990;2023-01-27T02:36:35;98644.06;;;1.06;61.05
39491;BME280;25175;50.140;18.990;2023-01-27T02:39:46;98643.88;;;0.90;61.21
39491;BME280;25175;50.140;18.990;2023-01-27T02:42:58;98640.69;;;1.06;61.26
39491;BME280;25175;50.140;18.990;2023-01-27T02:46:03;98643.91;;;1.08;61.32
39491;BME280;25175;50.140;18.990;2023-01-27T02:49:09;98646.22;;;1.11;61.22
39491;BME280;25175;50.140;18.990;2023-01-27T02:52:15;98640.09;;;1.12;61.42
39491;BME280;25175;50.140;18.990;2023-01-27T02:55:21;98633.00;;;1.14;61.22
39491;BME280;25175;50.140;18.990;2023-01-27T02:58:29;98638.69;;;1.17;61.18
39491;BME280;25175;50.140;18.990;2023-01-27T03:01:42;98644.56;;;1.19;61.11
39491;BME280;25175;50.140;18.990;2023-01-27T03:04:47;98630.81;;;1.19;60.91
39491;BME280;25175;50.140;18.990;2023-01-27T03:07:52;98640.19;;;1.20;60.79
39491;BME280;25175;50.140;18.990;2023-01-27T03:10:56;98638.41;;;1.20;60.67
39491;BME280;25175;50.140;18.990;2023-01-27T03:14:04;98643.34;;;1.14;60.62
39491;BME280;25175;50.140;18.990;2023-01-27T03:17:09;98651.63;;;1.17;60.86
39491;BME280;25175;50.140;18.990;2023-01-27T03:20:27;98635.31;;;1.17;60.67
39491;BME280;25175;50.140;18.990;2023-01-27T03:23:32;98609.06;;;0.94;60.67
39491;BME280;25175;50.140;18.990;2023-01-27T03:26:38;98649.75;;;1.10;60.86
39491;BME280;25175;50.140;18.990;2023-01-27T03:29:48;98652.34;;;1.10;61.00
39491;BME280;25175;50.140;18.990;2023-01-27T03:33:03;98657.38;;;1.11;60.77
39491;BME280;25175;50.140;18.990;2023-01-27T03:36:26;98654.63;;;1.13;60.98
39491;BME280;25175;50.140;18.990;2023-01-27T03:39:44;98649.47;;;1.13;61.07
39491;BME280;25175;50.140;18.990;2023-01-27T03:43:01;98646.75;;;1.14;60.80
39491;BME280;25175;50.140;18.990;2023-01-27T03:46:22;98639.78;;;1.15;60.93
39491;BME280;25175;50.140;18.990;2023-01-27T03:49:26;98641.59;;;1.14;60.83
39491;BME280;25175;50.140;18.990;2023-01-27T03:52:31;98642.38;;;1.15;60.74
39491;BME280;25175;50.140;18.990;2023-01-27T03:55:37;98551.91;;;0.53;60.85
39491;BME280;25175;50.140;18.990;2023-01-27T03:58:42;98641.34;;;1.08;61.04
39491;BME280;25175;50.140;18.990;2023-01-27T04:01:50;98530.78;;;0.40;61.15
39491;BME280;25175;50.140;18.990;2023-01-27T04:05:08;98648.94;;;1.09;61.24
39491;BME280;25175;50.140;18.990;2023-01-27T04:08:25;98641.06;;;1.11;61.07
39491;BME280;25175;50.140;18.990;2023-01-27T04:11:30;98641.72;;;1.13;61.21
39491;BME280;25175;50.140;18.990;2023-01-27T04:14:47;98648.81;;;1.11;61.03
39491;BME280;25175;50.140;18.990;2023-01-27T04:17:55;98635.06;;;1.10;61.24
39491;BME280;25175;50.140;18.990;2023-01-27T04:21:00;98636.63;;;1.03;60.99
39491;BME280;25175;50.140;18.990;2023-01-27T04:24:06;98632.16;;;0.96;61.56
39491;BME280;25175;50.140;18.990;2023-01-27T04:27:17;98634.75;;;0.96;61.60
39491;BME280;25175;50.140;18.990;2023-01-27T04:30:22;98639.09;;;0.95;61.68
39491;BME280;25175;50.140;18.990;2023-01-27T04:33:29;98635.72;;;0.85;61.47
39491;BME280;25175;50.140;18.990;2023-01-27T04:36:34;98633.59;;;0.81;61.87
39491;BME280;25175;50.140;18.990;2023-01-27T04:39:39;98635.38;;;0.71;61.95
39491;BME280;25175;50.140;18.990;2023-01-27T04:42:46;98638.16;;;0.60;62.13
39491;BME280;25175;50.140;18.990;2023-01-27T04:45:52;98634.94;;;0.48;62.26
39491;BME280;25175;50.140;18.990;2023-01-27T04:49:01;98630.19;;;0.44;62.53
39491;BME280;25175;50.140;18.990;2023-01-27T04:52:07;98630.47;;;0.41;62.73
39491;BME280;25175;50.140;18.990;2023-01-27T04:55:12;98641.59;;;0.41;62.85
39491;BME280;25175;50.140;18.990;2023-01-27T04:58:17;98637.41;;;0.40;62.62
39491;BME280;25175;50.140;18.990;2023-01-27T05:01:22;98633.63;;;0.35;62.59
39491;BME280;25175;50.140;18.990;2023-01-27T05:04:29;98642.19;;;0.26;62.71
39491;BME280;25175;50.140;18.990;2023-01-27T05:07:34;98644.78;;;0.26;62.70
39491;BME280;25175;50.140;18.990;2023-01-27T05:10:39;98646.00;;;0.22;62.92
39491;BME280;25175;50.140;18.990;2023-01-27T05:13:47;98619.84;;;-0.02;62.94
39491;BME280;25175;50.140;18.990;2023-01-27T05:16:52;98650.78;;;0.17;62.85
39491;BME280;25175;50.140;18.990;2023-01-27T05:19:59;98654.59;;;0.13;63.19
39491;BME280;25175;50.140;18.990;2023-01-27T05:23:04;98664.22;;;0.11;63.16
39491;BME280;25175;50.140;18.990;2023-01-27T05:26:23;98642.63;;;0.02;63.10
39491;BME280;25175;50.140;18.990;2023-01-27T05:29:28;98666.13;;;0.09;62.94
39491;BME280;25175;50.140;18.990;2023-01-27T05:32:33;98662.47;;;0.02;62.84
39491;BME280;25175;50.140;18.990;2023-01-27T05:35:40;98656.09;;;-0.04;62.99
39491;BME280;25175;50.140;18.990;2023-01-27T05:38:46;98660.97;;;-0.01;62.62
39491;BME280;25175;50.140;18.990;2023-01-27T05:41:51;98670.59;;;-0.03;62.62
39491;BME280;25175;50.140;18.990;2023-01-27T05:44:57;98654.59;;;-0.06;62.60
39491;BME280;25175;50.140;18.990;2023-01-27T05:48:01;98658.25;;;-0.09;62.74
39491;BME280;25175;50.140;18.990;2023-01-27T05:51:12;98662.34;;;-0.16;62.63
39491;BME280;25175;50.140;18.990;2023-01-27T05:54:17;98473.31;;;-1.29;62.61
39491;BME280;25175;50.140;18.990;2023-01-27T05:57:23;98664.50;;;-0.21;62.52
39491;BME280;25175;50.140;18.990;2023-01-27T06:00:27;98668.16;;;-0.23;62.70
39491;BME280;25175;50.140;18.990;2023-01-27T06:03:32;98663.44;;;-0.28;62.76
39491;BME280;25175;50.140;18.990;2023-01-27T06:06:39;98669.66;;;-0.30;62.72
39491;BME280;25175;50.140;18.990;2023-01-27T06:09:44;98679.31;;;-0.32;62.77
39491;BME280;25175;50.140;18.990;2023-01-27T06:12:49;98678.63;;;-0.34;62.63
39491;BME280;25175;50.140;18.990;2023-01-27T06:15:54;98670.88;;;-0.34;62.53
39491;BME280;25175;50.140;18.990;2023-01-27T06:18:58;98680.53;;;-0.36;62.20
39491;BME280;25175;50.140;18.990;2023-01-27T06:22:06;98673.59;;;-0.36;61.93
39491;BME280;25175;50.140;18.990;2023-01-27T06:25:11;98687.31;;;-0.35;61.86
39491;BME280;25175;50.140;18.990;2023-01-27T06:28:16;98554.19;;;-1.22;61.40
39491;BME280;25175;50.140;18.990;2023-01-27T06:31:21;98701.16;;;-0.36;61.39
39491;BME280;25175;50.140;18.990;2023-01-27T06:34:28;98689.47;;;-0.40;61.16
39491;BME280;25175;50.140;18.990;2023-01-27T06:37:35;98701.94;;;-0.36;60.82
39491;BME280;25175;50.140;18.990;2023-01-27T06:40:40;98709.84;;;-0.37;60.62
39491;BME280;25175;50.140;18.990;2023-01-27T06:43:45;98695.31;;;-0.38;60.61
39491;BME280;25175;50.140;18.990;2023-01-27T06:46:50;98699.66;;;-0.39;60.28
39491;BME280;25175;50.140;18.990;2023-01-27T06:49:55;98606.78;;;-1.05;60.23
39491;BME280;25175;50.140;18.990;2023-01-27T06:53:04;98703.56;;;-0.44;60.11
39491;BME280;25175;50.140;18.990;2023-01-27T06:56:09;98707.63;;;-0.42;60.23
39491;BME280;25175;50.140;18.990;2023-01-27T06:59:14;98715.13;;;-0.39;59.94
39491;BME280;25175;50.140;18.990;2023-01-27T07:02:19;98710.50;;;-0.45;59.96
39491;BME280;25175;50.140;18.990;2023-01-27T07:05:24;98715.00;;;-0.37;59.82
39491;BME280;25175;50.140;18.990;2023-01-27T07:08:31;98715.94;;;-0.38;59.45
39491;BME280;25175;50.140;18.990;2023-01-27T07:11:36;98712.13;;;-0.34;59.45
39491;BME280;25175;50.140;18.990;2023-01-27T07:14:41;98708.59;;;-0.33;59.00
39491;BME280;25175;50.140;18.990;2023-01-27T07:17:49;98719.06;;;-0.35;58.60
39491;BME280;25175;50.140;18.990;2023-01-27T07:20:53;98725.56;;;-0.40;58.75
39491;BME280;25175;50.140;18.990;2023-01-27T07:24:01;98716.31;;;-0.43;58.60
39491;BME280;25175;50.140;18.990;2023-01-27T07:27:05;98724.19;;;-0.44;58.50
39491;BME280;25175;50.140;18.990;2023-01-27T07:30:11;98719.03;;;-0.44;58.53
39491;BME280;25175;50.140;18.990;2023-01-27T07:33:16;98721.59;;;-0.44;58.30
39491;BME280;25175;50.140;18.990;2023-01-27T07:36:22;98713.88;;;-0.44;58.19
39491;BME280;25175;50.140;18.990;2023-01-27T07:39:28;98721.47;;;-0.43;58.07
39491;BME280;25175;50.140;18.990;2023-01-27T07:42:34;98713.88;;;-0.44;57.79
39491;BME280;25175;50.140;18.990;2023-01-27T07:45:38;98731.66;;;-0.41;58.03
39491;BME280;25175;50.140;18.990;2023-01-27T07:48:43;98719.44;;;-0.39;57.49
39491;BME280;25175;50.140;18.990;2023-01-27T07:51:50;98734.09;;;-0.40;57.33
39491;BME280;25175;50.140;18.990;2023-01-27T07:54:58;98715.94;;;-0.38;57.56
39491;BME280;25175;50.140;18.990;2023-01-27T07:58:02;98727.72;;;-0.36;57.46
39491;BME280;25175;50.140;18.990;2023-01-27T08:01:09;98723.38;;;-0.35;57.30
39491;BME280;25175;50.140;18.990;2023-01-27T08:04:14;98733.28;;;-0.31;57.05
39491;BME280;25175;50.140;18.990;2023-01-27T08:07:19;98721.91;;;-0.28;57.02
39491;BME280;25175;50.140;18.990;2023-01-27T08:10:27;98613.47;;;-0.93;57.00
39491;BME280;25175;50.140;18.990;2023-01-27T08:13:32;98729.38;;;-0.25;56.82
39491;BME280;25175;50.140;18.990;2023-01-27T08:16:36;98725.84;;;-0.24;56.80
39491;BME280;25175;50.140;18.990;2023-01-27T08:19:41;98739.28;;;-0.21;56.85
39491;BME280;25175;50.140;18.990;2023-01-27T08:22:46;98741.31;;;-0.15;56.81
39491;BME280;25175;50.140;18.990;2023-01-27T08:25:55;98740.78;;;-0.18;55.92
39491;BME280;25175;50.140;18.990;2023-01-27T08:29:03;98731.66;;;-0.22;56.24
39491;BME280;25175;50.140;18.990;2023-01-27T08:32:08;98725.84;;;-0.24;56.09
39491;BME280;25175;50.140;18.990;2023-01-27T08:35:13;98739.56;;;-0.24;55.61
39491;BME280;25175;50.140;18.990;2023-01-27T08:38:19;98742.41;;;-0.27;55.74
39491;BME280;25175;50.140;18.990;2023-01-27T08:41:26;98756.53;;;-0.21;56.31
39491;BME280;25175;50.140;18.990;2023-01-27T08:44:32;98754.22;;;-0.15;55.87
39491;BME280;25175;50.140;18.990;2023-01-27T08:47:36;98720.81;;;-0.35;55.85
39491;BME280;25175;50.140;18.990;2023-01-27T08:50:41;98747.03;;;-0.11;56.30
39491;BME280;25175;50.140;18.990;2023-01-27T08:53:48;98743.34;;;-0.09;56.05
39491;BME280;25175;50.140;18.990;2023-01-27T08:56:56;98647.09;;;-0.66;56.30
39491;BME280;25175;50.140;18.990;2023-01-27T09:00:01;98755.34;;;0.02;56.67
39491;BME280;25175;50.140;18.990;2023-01-27T09:03:09;98617.13;;;-0.77;56.00
39491;BME280;25175;50.140;18.990;2023-01-27T09:06:15;98754.78;;;0.08;56.58
39491;BME280;25175;50.140;18.990;2023-01-27T09:09:20;98768.09;;;0.13;56.49
39491;BME280;25175;50.140;18.990;2023-01-27T09:12:27;98761.16;;;0.13;56.11
39491;BME280;25175;50.140;18.990;2023-01-27T09:15:33;98769.31;;;0.09;56.23
39491;BME280;25175;50.140;18.990;2023-01-27T09:18:38;98756.53;;;-0.02;56.31
39491;BME280;25175;50.140;18.990;2023-01-27T09:21:43;98763.06;;;0.02;56.54
39491;BME280;25175;50.140;18.990;2023-01-27T09:24:47;98780.28;;;0.01;56.46
39491;BME280;25175;50.140;18.990;2023-01-27T09:27:57;98785.59;;;-0.00;56.51
39491;BME280;25175;50.140;18.990;2023-01-27T09:31:02;98784.25;;;0.05;56.71
39491;BME280;25175;50.140;18.990;2023-01-27T09:34:09;98777.06;;;0.09;56.21
39491;BME280;25175;50.140;18.990;2023-01-27T09:37:13;98782.22;;;0.09;55.90
39491;BME280;25175;50.140;18.990;2023-01-27T09:40:31;98764.44;;;0.06;55.96
39491;BME280;25175;50.140;18.990;2023-01-27T09:44:07;98778.41;;;0.13;55.93
39491;BME280;25175;50.140;18.990;2023-01-27T09:47:51;98772.84;;;0.17;55.88
39491;BME280;25175;50.140;18.990;2023-01-27T09:51:15;98774.47;;;0.18;55.58
39491;BME280;25175;50.140;18.990;2023-01-27T09:54:47;98769.31;;;0.18;55.74
39491;BME280;25175;50.140;18.990;2023-01-27T09:58:09;98768.50;;;0.18;55.32
39491;BME280;25175;50.140;18.990;2023-01-27T10:01:39;98769.72;;;0.14;55.18
39491;BME280;25175;50.140;18.990;2023-01-27T10:05:05;98751.13;;;0.01;55.39
39491;BME280;25175;50.140;18.990;2023-01-27T10:08:43;98773.38;;;0.21;55.52
39491;BME280;25175;50.140;18.990;2023-01-27T10:12:13;98771.34;;;0.24;55.40
39491;BME280;25175;50.140;18.990;2023-01-27T10:15:50;98770.94;;;0.19;54.89
39491;BME280;25175;50.140;18.990;2023-01-27T10:19:23;98759.94;;;0.27;55.04
39491;BME280;25175;50.140;18.990;2023-01-27T10:22:52;98762.66;;;0.25;55.10
39491;BME280;25175;50.140;18.990;2023-01-27T10:26:22;98607.66;;;-0.67;55.29
39491;BME280;25175;50.140;18.990;2023-01-27T10:29:40;98715.81;;;0.01;55.21
39491;BME280;25175;50.140;18.990;2023-01-27T10:33:17;98764.84;;;0.30;54.80
39491;BME280;25175;50.140;18.990;2023-01-27T10:36:29;98764.16;;;0.28;55.28
39491;BME280;25175;50.140;18.990;2023-01-27T10:39:51;98758.97;;;0.18;55.47
39491;BME280;25175;50.140;18.990;2023-01-27T10:43:12;98747.59;;;0.11;55.37
39491;BME280;25175;50.140;18.990;2023-01-27T10:46:39;98764.44;;;0.25;55.50
39491;BME280;25175;50.140;18.990;2023-01-27T10:49:59;98768.63;;;0.26;55.58
39491;BME280;25175;50.140;18.990;2023-01-27T10:53:15;98763.88;;;0.21;55.46
39491;BME280;25175;50.140;18.990;2023-01-27T10:56:33;98775.03;;;0.31;55.50
39491;BME280;25175;50.140;18.990;2023-01-27T10:59:49;98774.34;;;0.39;55.74
39491;BME280;25175;50.140;18.990;2023-01-27T11:03:06;98763.75;;;0.42;55.05
39491;BME280;25175;50.140;18.990;2023-01-27T11:06:22;98760.31;;;0.41;54.37
39491;BME280;25175;50.140;18.990;2023-01-27T11:09:35;98770.13;;;0.38;55.04
39491;BME280;25175;50.140;18.990;2023-01-27T11:12:53;98761.44;;;0.39;55.32
39491;BME280;25175;50.140;18.990;2023-01-27T11:16:04;98760.50;;;0.40;55.33
39491;BME280;25175;50.140;18.990;2023-01-27T11:19:34;98742.97;;;0.34;55.08
39491;BME280;25175;50.140;18.990;2023-01-27T11:22:52;98756.53;;;0.45;55.00
39491;BME280;25175;50.140;18.990;2023-01-27T11:26:11;98754.34;;;0.50;55.31
39491;BME280;25175;50.140;18.990;2023-01-27T11:29:35;98761.00;;;0.53;55.09
39491;BME280;25175;50.140;18.990;2023-01-27T11:32:55;98753.78;;;0.56;55.09
39491;BME280;25175;50.140;18.990;2023-01-27T11:36:08;98754.63;;;0.57;54.43
39491;BME280;25175;50.140;18.990;2023-01-27T11:39:13;98758.81;;;0.58;54.80
39491;BME280;25175;50.140;18.990;2023-01-27T11:42:24;98766.56;;;0.58;54.32
39491;BME280;25175;50.140;18.990;2023-01-27T11:45:35;98755.28;;;0.59;53.91
39491;BME280;25175;50.140;18.990;2023-01-27T11:48:43;98753.00;;;0.56;54.04
39491;BME280;25175;50.140;18.990;2023-01-27T11:51:50;98759.78;;;0.57;53.78
39491;BME280;25175;50.140;18.990;2023-01-27T11:55:04;98712.81;;;0.25;53.68
39491;BME280;25175;50.140;18.990;2023-01-27T11:58:24;98767.38;;;0.49;53.78
39491;BME280;25175;50.140;18.990;2023-01-27T12:01:43;98751.22;;;0.47;53.64
39491;BME280;25175;50.140;18.990;2023-01-27T12:04:59;98752.19;;;0.46;53.83
39491;BME280;25175;50.140;18.990;2023-01-27T12:08:10;98751.91;;;0.49;53.48
39491;BME280;25175;50.140;18.990;2023-01-27T12:11:20;98711.72;;;0.27;54.07
39491;BME280;25175;50.140;18.990;2023-01-27T12:14:30;98745.94;;;0.48;53.44
39491;BME280;25175;50.140;18.990;2023-01-27T12:17:40;98736.84;;;0.44;53.77
39491;BME280;25175;50.140;18.990;2023-01-27T12:20:57;98746.06;;;0.47;53.73
39491;BME280;25175;50.140;18.990;2023-01-27T12:24:11;98737.50;;;0.46;53.26
39491;BME280;25175;50.140;18.990;2023-01-27T12:27:27;98725.56;;;0.36;53.01
39491;BME280;25175;50.140;18.990;2023-01-27T12:30:37;98741.47;;;0.41;52.71
39491;BME280;25175;50.140;18.990;2023-01-27T12:33:50;98739.44;;;0.35;52.45
39491;BME280;25175;50.140;18.990;2023-01-27T12:37:05;98748.53;;;0.39;52.88
39491;BME280;25175;50.140;18.990;2023-01-27T12:40:22;98756.81;;;0.42;52.58
39491;BME280;25175;50.140;18.990;2023-01-27T12:43:28;98755.03;;;0.43;52.42
39491;BME280;25175;50.140;18.990;2023-01-27T12:46:39;98739.53;;;0.43;52.29
39491;BME280;25175;50.140;18.990;2023-01-27T12:50:19;98742.81;;;0.45;52.24
39491;BME280;25175;50.140;18.990;2023-01-27T12:53:27;98743.63;;;0.45;52.47
39491;BME280;25175;50.140;18.990;2023-01-27T12:56:34;98731.25;;;0.49;52.66
39491;BME280;25175;50.140;18.990;2023-01-27T12:59:46;98725.94;;;0.50;52.10
39491;BME280;25175;50.140;18.990;2023-01-27T13:03:04;98737.78;;;0.53;52.45
39491;BME280;25175;50.140;18.990;2023-01-27T13:06:15;98748.09;;;0.53;51.94
39491;BME280;25175;50.140;18.990;2023-01-27T13:09:26;98734.22;;;0.54;52.44
39491;BME280;25175;50.140;18.990;2023-01-27T13:12:48;98739.41;;;0.54;51.93
39491;BME280;25175;50.140;18.990;2023-01-27T13:15:59;98746.34;;;0.53;51.84
39491;BME280;25175;50.140;18.990;2023-01-27T13:19:17;98737.38;;;0.48;51.87
39491;BME280;25175;50.140;18.990;2023-01-27T13:22:27;98738.88;;;0.50;51.51
39491;BME280;25175;50.140;18.990;2023-01-27T13:25:46;98745.66;;;0.51;51.68
39491;BME280;25175;50.140;18.990;2023-01-27T13:29:03;98742.28;;;0.51;52.09
39491;BME280;25175;50.140;18.990;2023-01-27T13:32:19;98741.31;;;0.52;51.95
39491;BME280;25175;50.140;18.990;2023-01-27T13:35:36;98741.03;;;0.55;52.32
39491;BME280;25175;50.140;18.990;2023-01-27T13:38:54;98740.09;;;0.56;51.75
39491;BME280;25175;50.140;18.990;2023-01-27T13:42:12;98743.75;;;0.53;51.62
39491;BME280;25175;50.140;18.990;2023-01-27T13:45:25;98744.16;;;0.58;51.66
39491;BME280;25175;50.140;18.990;2023-01-27T13:48:45;98749.31;;;0.58;51.26
39491;BME280;25175;50.140;18.990;2023-01-27T13:51:59;98744.81;;;0.60;51.84
39491;BME280;25175;50.140;18.990;2023-01-27T13:55:04;98751.47;;;0.63;51.61
39491;BME280;25175;50.140;18.990;2023-01-27T13:58:24;98748.25;;;0.61;51.59
39491;BME280;25175;50.140;18.990;2023-01-27T14:01:45;98755.97;;;0.70;51.45
39491;BME280;25175;50.140;18.990;2023-01-27T14:05:35;98756.91;;;0.69;51.19
39491;BME280;25175;50.140;18.990;2023-01-27T14:09:01;98748.91;;;0.63;50.81
39491;BME280;25175;50.140;18.990;2023-01-27T14:12:34;98758.41;;;0.62;51.18
39491;BME280;25175;50.140;18.990;2023-01-27T14:15:54;98755.72;;;0.54;51.43
39491;BME280;25175;50.140;18.990;2023-01-27T14:19:24;98760.88;;;0.54;51.46
39491;BME280;25175;50.140;18.990;2023-01-27T14:22:45;98770.13;;;0.47;51.37
39491;BME280;25175;50.140;18.990;2023-01-27T14:26:12;98634.91;;;-0.45;51.40
39491;BME280;25175;50.140;18.990;2023-01-27T14:29:33;98778.56;;;0.40;51.83
39491;BME280;25175;50.140;18.990;2023-01-27T14:32:55;98789.13;;;0.37;51.88
39491;BME280;25175;50.140;18.990;2023-01-27T14:36:15;98797.56;;;0.39;51.98
39491;BME280;25175;50.140;18.990;2023-01-27T14:39:37;98772.44;;;0.31;52.15
39491;BME280;25175;50.140;18.990;2023-01-27T14:43:10;98791.16;;;0.43;52.20
39491;BME280;25175;50.140;18.990;2023-01-27T14:46:43;98792.78;;;0.44;52.09
39491;BME280;25175;50.140;18.990;2023-01-27T14:53:47;98815.22;;;0.53;52.49
39491;BME280;25175;50.140;18.990;2023-01-27T14:57:20;98809.50;;;0.59;52.40
39491;BME280;25175;50.140;18.990;2023-01-27T15:00:48;98805.03;;;0.61;52.14
39491;BME280;25175;50.140;18.990;2023-01-27T15:07:51;98817.09;;;0.70;52.37
39491;BME280;25175;50.140;18.990;2023-01-27T15:11:20;98811.94;;;0.70;51.90
39491;BME280;25175;50.140;18.990;2023-01-27T15:14:49;98821.47;;;0.69;51.86
39491;BME280;25175;50.140;18.990;2023-01-27T15:18:44;98808.41;;;0.61;51.69
39491;BME280;25175;50.140;18.990;2023-01-27T15:22:22;98829.59;;;0.65;52.08
39491;BME280;25175;50.140;18.990;2023-01-27T15:25:44;98829.59;;;0.65;51.97
39491;BME280;25175;50.140;18.990;2023-01-27T15:28:53;98833.97;;;0.64;52.03
39491;BME280;25175;50.140;18.990;2023-01-27T15:32:20;98800.81;;;0.41;52.21
39491;BME280;25175;50.140;18.990;2023-01-27T15:35:38;98830.44;;;0.65;52.30
39491;BME280;25175;50.140;18.990;2023-01-27T15:38:58;98841.19;;;0.70;52.36
39491;BME280;25175;50.140;18.990;2023-01-27T15:42:24;98825.28;;;0.56;51.83
39491;BME280;25175;50.140;18.990;2023-01-27T15:45:55;98841.56;;;0.66;51.91
39491;BME280;25175;50.140;18.990;2023-01-27T15:49:03;98835.72;;;0.64;52.09
39491;BME280;25175;50.140;18.990;2023-01-27T15:52:35;98852.03;;;0.74;52.31
39491;BME280;25175;50.140;18.990;2023-01-27T15:55:51;98793.38;;;0.47;52.54
39491;BME280;25175;50.140;18.990;2023-01-27T15:59:04;98845.78;;;0.76;51.84
39491;BME280;25175;50.140;18.990;2023-01-27T16:02:16;98848.63;;;0.73;51.69
39491;BME280;25175;50.140;18.990;2023-01-27T16:05:29;98848.09;;;0.70;51.47
39491;BME280;25175;50.140;18.990;2023-01-27T16:08:46;98833.97;;;0.64;51.71
39491;BME280;25175;50.140;18.990;2023-01-27T16:11:58;98838.84;;;0.67;51.23
39491;BME280;25175;50.140;18.990;2023-01-27T16:15:30;98823.91;;;0.52;51.22
39491;BME280;25175;50.140;18.990;2023-01-27T16:18:42;98847.56;;;0.57;51.54
39491;BME280;25175;50.140;18.990;2023-01-27T16:21:59;98851.91;;;0.56;51.71
39491;BME280;25175;50.140;18.990;2023-01-27T16:25:24;98846.59;;;0.58;51.82
39491;BME280;25175;50.140;18.990;2023-01-27T16:28:36;98836.94;;;0.60;51.87
39491;BME280;25175;50.140;18.990;2023-01-27T16:31:51;98836.41;;;0.66;51.93
39491;BME280;25175;50.140;18.990;2023-01-27T16:35:02;98835.19;;;0.70;51.92
39491;BME280;25175;50.140;18.990;2023-01-27T16:38:21;98833.69;;;0.67;51.78
39491;BME280;25175;50.140;18.990;2023-01-27T16:41:36;98837.22;;;0.66;51.18
39491;BME280;25175;50.140;18.990;2023-01-27T16:44:46;98835.84;;;0.62;50.69
39491;BME280;25175;50.140;18.990;2023-01-27T16:47:58;98841.84;;;0.63;51.14
39491;BME280;25175;50.140;18.990;2023-01-27T16:51:19;98856.53;;;0.62;51.23
39491;BME280;25175;50.140;18.990;2023-01-27T16:54:31;98844.97;;;0.57;50.57
39491;BME280;25175;50.140;18.990;2023-01-27T16:57:44;98857.72;;;0.49;50.50
39491;BME280;25175;50.140;18.990;2023-01-27T17:00:49;98855.16;;;0.49;49.98
39491;BME280;25175;50.140;18.990;2023-01-27T17:03:57;98861.97;;;0.50;50.23